KATL/ATL METAR and TAF weather

Enter ICAO airport designator
Station Type Date Time Source
KATL METAR 2018/07/20 13:52 UTC NOAA

KATL 201352Z 07009KT 10SM BKN013 BKN020 OVC120 24/21 A3004 RMK AO2 SLP163 T02440211


Station Type Date Time Source
KATL Decoded METAR 2018/07/20 13:52 UTC NOAA

HARTSFIELD-JACKSON ATLANTA, GA, United States (KATL) 33-39N 84-26W
Jul 20, 2018 - 09:52 AM EDT / 2018.07.20 1352 UTC
Wind: from the ENE (070 degrees) at 10 MPH (9 KT):0
Visibility: 10 mile(s):0
Sky conditions: overcast
Temperature: 75.9 F (24.4 C)
Dew Point: 70.0 F (21.1 C)
Relative Humidity: 81%
Pressure (altimeter): 30.04 in. Hg (1017 hPa)
ob: KATL 201352Z 07009KT 10SM BKN013 BKN020 OVC120 24/21 A3004 RMK AO2 SLP163 T02440211
cycle: 14

Station Type Date Time Source
KATL TAF 2018/07/20 14:54 UTC NOAA

TAF
AMD KATL 201352Z 2014/2118 09010KT P6SM BKN015
FM201600 09007KT P6SM BKN025
FM201800 10006KT P6SM VCSH BKN045
FM202000 09006KT P6SM VCSH SCT045
FM210000 13005KT P6SM FEW040
FM210800 28008KT P6SM SCT040 PROB30 2108/2112 VRB15G25KT 4SM TSRA BKN035CB


Example: see airport list